createdAt,value
2019-04-16T00:02:48.567Z,6.13
2019-04-16T00:08:09.747Z,5.20
2019-04-16T00:13:20.508Z,5.77
2019-04-16T00:18:22.593Z,6.17
2019-04-16T00:23:36.213Z,5.50
2019-04-16T00:28:38.337Z,5.77
2019-04-16T00:33:42.846Z,5.97
2019-04-16T00:38:44.507Z,5.77
2019-04-16T00:43:46.625Z,5.90
2019-04-16T00:48:48.705Z,6.57
2019-04-16T00:53:50.772Z,6.17
2019-04-16T00:58:53.096Z,6.23
2019-04-16T01:03:55.342Z,6.13
2019-04-16T01:08:57.427Z,5.57
2019-04-16T01:13:59.541Z,5.70
2019-04-16T01:19:01.592Z,5.53
2019-04-16T01:24:03.738Z,6.13
2019-04-16T01:29:13.264Z,5.97
2019-04-16T01:34:47.133Z,6.23
2019-04-16T01:39:49.736Z,6.17
2019-04-16T01:44:51.918Z,6.50
2019-04-16T01:49:53.970Z,6.20
2019-04-16T01:54:56.189Z,6.40
2019-04-16T01:59:58.301Z,5.53
2019-04-16T02:05:00.390Z,6.60
2019-04-16T02:10:06.412Z,6.00
2019-04-16T02:15:07.366Z,6.00
2019-04-16T02:20:09.413Z,6.30
2019-04-16T02:25:11.506Z,6.17
2019-04-16T02:30:13.932Z,6.47
2019-04-16T02:35:16.050Z,5.90
2019-04-16T02:40:18.862Z,5.87
2019-04-16T02:45:23.472Z,6.77
2019-04-16T02:50:32.722Z,6.67
2019-04-16T02:55:51.014Z,6.67
2019-04-16T03:01:30.765Z,6.80
2019-04-16T03:06:35.014Z,6.67
2019-04-16T03:11:37.158Z,6.77
2019-04-16T03:16:50.211Z,6.73
2019-04-16T03:21:55.504Z,6.73
2019-04-16T03:26:56.260Z,7.27
2019-04-16T03:31:59.601Z,6.57
2019-04-16T03:37:03.095Z,6.37
2019-04-16T03:42:05.605Z,6.40
2019-04-16T03:47:07.820Z,7.40
2019-04-16T03:52:09.968Z,6.20
2019-04-16T03:57:12.084Z,6.67
2019-04-16T04:02:15.516Z,6.57
2019-04-16T04:07:18.247Z,7.00
2019-04-16T04:12:20.316Z,7.43
2019-04-16T04:17:22.960Z,7.47
2019-04-16T04:22:25.937Z,7.67
2019-04-16T04:27:28.896Z,7.00
2019-04-16T04:32:32.424Z,7.90
2019-04-16T04:37:34.913Z,7.87
2019-04-16T04:42:36.990Z,8.00
2019-04-16T04:47:39.139Z,7.87
2019-04-16T04:52:43.261Z,7.97
2019-04-16T04:57:45.251Z,7.73
2019-04-16T05:02:47.448Z,8.13
2019-04-16T05:07:49.492Z,8.07
2019-04-16T05:12:53.701Z,8.70
2019-04-16T05:17:57.619Z,8.97
2019-04-16T05:22:59.777Z,9.20
2019-04-16T05:28:01.845Z,9.13
2019-04-16T05:33:05.621Z,9.47
2019-04-16T05:38:07.955Z,9.57
2019-04-16T05:43:11.226Z,9.67
2019-04-16T05:48:13.325Z,9.27
2019-04-16T05:53:15.369Z,10.03
2019-04-16T05:58:17.488Z,8.63
2019-04-16T06:03:21.630Z,7.63
2019-04-16T06:08:23.613Z,8.27
2019-04-16T06:13:45.381Z,7.27
2019-04-16T06:19:18.925Z,7.93
2019-04-16T06:24:43.568Z,7.83
2019-04-16T06:30:32.996Z,7.57
2019-04-16T06:35:58.671Z,8.43
2019-04-16T06:41:08.635Z,7.90
2019-04-16T06:46:29.322Z,7.97
2019-04-16T06:51:44.481Z,7.97
2019-04-16T06:57:01.373Z,7.77
2019-04-16T07:02:24.351Z,8.00
2019-04-16T07:07:46.779Z,7.27
2019-04-16T07:12:48.125Z,7.40
2019-04-16T07:17:50.326Z,7.27
2019-04-16T07:22:52.893Z,8.03
2019-04-16T07:28:10.519Z,7.33
2019-04-16T07:33:34.975Z,7.40
2019-04-16T07:38:47.986Z,7.53
2019-04-16T07:44:21.741Z,8.00
2019-04-16T07:49:29.009Z,8.57
2019-04-16T07:54:48.194Z,7.17
2019-04-16T07:59:50.274Z,7.53
2019-04-16T08:04:52.398Z,7.63
2019-04-16T08:09:54.522Z,7.57
2019-04-16T08:14:56.602Z,7.63
2019-04-16T08:19:59.007Z,7.37
2019-04-16T08:25:03.255Z,7.77
2019-04-16T08:30:09.841Z,7.73
2019-04-16T08:35:12.098Z,7.27
2019-04-16T08:40:14.200Z,8.10
2019-04-16T08:45:20.632Z,7.50
2019-04-16T08:50:25.851Z,8.07
2019-04-16T08:55:26.636Z,7.83
2019-04-16T09:00:28.882Z,7.70
2019-04-16T09:05:33.398Z,8.57
2019-04-16T09:10:35.787Z,8.50
2019-04-16T09:15:38.399Z,8.13
2019-04-16T09:20:41.890Z,8.23
2019-04-16T09:26:11.346Z,8.33
2019-04-16T09:31:22.078Z,8.73
2019-04-16T09:36:45.051Z,8.37
2019-04-16T09:41:48.799Z,8.37
2019-04-16T09:46:53.078Z,8.03
2019-04-16T09:51:55.188Z,8.27
2019-04-16T09:56:59.766Z,8.40
2019-04-16T10:02:07.456Z,9.23
2019-04-16T10:07:09.645Z,9.53
2019-04-16T10:12:11.691Z,9.33
2019-04-16T10:17:13.853Z,8.90
2019-04-16T10:22:17.322Z,8.87
2019-04-16T10:27:31.235Z,9.33
2019-04-16T10:32:31.379Z,8.47
2019-04-16T10:37:33.507Z,8.93
2019-04-16T10:43:01.000Z,9.00
2019-04-16T10:48:32.121Z,9.50
2019-04-16T10:53:49.699Z,9.30
2019-04-16T10:59:26.691Z,9.47
2019-04-16T11:04:51.330Z,9.97
2019-04-16T11:09:53.402Z,10.17
2019-04-16T11:14:55.446Z,9.70
2019-04-16T11:20:00.084Z,9.93
2019-04-16T11:25:01.707Z,9.97
2019-04-16T11:30:06.225Z,10.13
2019-04-16T11:35:08.489Z,9.70
2019-04-16T11:40:10.806Z,9.33
2019-04-16T11:45:14.282Z,9.47
2019-04-16T11:50:16.435Z,9.20
2019-04-16T11:55:18.496Z,9.27
2019-04-16T12:00:28.738Z,9.17
2019-04-16T12:05:35.269Z,9.00
2019-04-16T12:10:59.735Z,9.23
2019-04-16T12:16:33.348Z,9.00
2019-04-16T12:21:45.967Z,9.57
2019-04-16T12:27:16.538Z,9.40
2019-04-16T12:32:44.208Z,10.17
2019-04-16T12:38:13.161Z,9.67
2019-04-16T12:43:20.670Z,10.27
2019-04-16T12:48:48.463Z,10.27
2019-04-16T12:54:03.284Z,10.63
2019-04-16T12:59:12.588Z,10.63
2019-04-16T13:04:34.289Z,9.57
2019-04-16T13:09:47.576Z,9.77
2019-04-16T13:15:14.802Z,10.43
2019-04-16T13:20:45.890Z,9.67
2019-04-16T13:26:03.220Z,9.50
2019-04-16T13:31:05.305Z,10.30
2019-04-16T13:36:07.397Z,9.63
2019-04-16T13:41:09.496Z,10.00
2019-04-16T13:46:11.559Z,9.40
2019-04-16T13:51:18.836Z,8.73
2019-04-16T13:56:29.502Z,9.20
2019-04-16T14:01:35.449Z,9.63
2019-04-16T14:06:37.528Z,8.53
2019-04-16T14:11:39.646Z,8.30
2019-04-16T14:16:43.812Z,9.57
2019-04-16T14:21:45.738Z,8.87
2019-04-16T14:26:47.887Z,8.20
2019-04-16T14:31:52.317Z,8.53
2019-04-16T14:36:57.052Z,10.33
2019-04-16T14:41:58.469Z,9.17
2019-04-16T14:47:01.978Z,9.27
2019-04-16T14:52:04.433Z,9.53
2019-04-16T14:57:10.185Z,9.20
2019-04-16T15:02:29.330Z,8.50
2019-04-16T15:07:38.314Z,8.73
2019-04-16T15:13:02.900Z,8.80
2019-04-16T15:18:09.517Z,9.60
2019-04-16T15:23:31.233Z,9.27
2019-04-16T15:28:41.114Z,9.03
2019-04-16T15:33:57.931Z,9.20
2019-04-16T15:39:19.023Z,8.73
2019-04-16T15:44:32.180Z,8.03
2019-04-16T15:49:55.657Z,8.50
2019-04-16T15:55:14.415Z,8.37
2019-04-16T16:00:45.607Z,8.30
2019-04-16T16:05:58.221Z,9.33
2019-04-16T16:11:02.198Z,8.93
2019-04-16T16:16:04.276Z,9.10
2019-04-16T16:21:06.464Z,9.23
2019-04-16T16:26:08.651Z,9.77
2019-04-16T16:31:10.729Z,9.00
2019-04-16T16:36:12.838Z,9.50
2019-04-16T16:41:14.952Z,8.67
2019-04-16T16:46:29.099Z,8.50
2019-04-16T16:51:31.271Z,8.30
2019-04-16T16:56:46.085Z,9.40
2019-04-16T17:02:10.558Z,8.77
2019-04-16T17:07:17.527Z,9.07
2019-04-16T17:12:17.864Z,8.87
2019-04-16T17:17:19.981Z,8.87
2019-04-16T17:22:22.097Z,8.30
2019-04-16T17:27:24.199Z,8.40
2019-04-16T17:32:26.328Z,7.80
2019-04-16T17:37:28.895Z,8.00
2019-04-16T17:42:38.452Z,7.70
2019-04-16T17:48:09.135Z,7.30
2019-04-16T17:53:33.359Z,7.80
2019-04-16T17:58:44.409Z,7.30
2019-04-16T18:03:53.305Z,7.53
2019-04-16T18:09:09.395Z,6.90
2019-04-16T18:14:33.788Z,7.17
2019-04-16T18:20:12.956Z,6.87
2019-04-16T18:25:35.209Z,7.03
2019-04-16T18:30:49.222Z,6.37
2019-04-16T18:36:14.138Z,6.77
2019-04-16T18:41:35.850Z,6.77
2019-04-16T18:46:57.552Z,7.03
2019-04-16T18:52:01.754Z,6.07
2019-04-16T18:57:03.910Z,6.20
2019-04-16T19:02:08.772Z,6.40
2019-04-16T19:07:10.162Z,5.97
2019-04-16T19:12:12.250Z,6.63
2019-04-16T19:17:16.670Z,6.00
2019-04-16T19:22:18.323Z,6.50
2019-04-16T19:27:20.371Z,6.50
2019-04-16T19:32:24.830Z,6.67
2019-04-16T19:37:26.483Z,6.77
2019-04-16T19:42:29.575Z,6.50
2019-04-16T19:47:35.175Z,6.33
2019-04-16T19:52:35.879Z,7.00
2019-04-16T19:57:37.949Z,6.47
2019-04-16T20:02:40.048Z,6.73
2019-04-16T20:07:42.108Z,7.23
2019-04-16T20:12:44.148Z,6.93
2019-04-16T20:17:46.231Z,7.23
2019-04-16T20:22:48.342Z,7.50
2019-04-16T20:27:50.572Z,7.30
2019-04-16T20:32:52.681Z,7.10
2019-04-16T20:37:55.151Z,8.23
2019-04-16T20:42:57.942Z,7.80
2019-04-16T20:48:00.010Z,7.30
2019-04-16T20:53:06.249Z,7.63
2019-04-16T20:58:05.996Z,7.50
2019-04-16T21:03:21.501Z,7.60
2019-04-16T21:08:12.068Z,7.50
2019-04-16T21:13:16.277Z,7.17
2019-04-16T21:18:18.254Z,7.83
2019-04-16T21:23:20.349Z,8.20
2019-04-16T21:28:50.825Z,7.87
2019-04-16T21:34:01.591Z,8.33
2019-04-16T21:39:09.096Z,7.57
2019-04-16T21:44:13.118Z,8.17
2019-04-16T21:49:15.256Z,7.30
2019-04-16T21:54:17.333Z,8.07
2019-04-16T21:59:21.349Z,7.77
2019-04-16T22:04:23.404Z,7.07
2019-04-16T22:09:25.457Z,7.70
2019-04-16T22:14:27.498Z,7.40
2019-04-16T22:19:29.763Z,7.60
2019-04-16T22:24:31.823Z,7.70
2019-04-16T22:29:33.909Z,6.90
2019-04-16T22:34:36.074Z,7.47
2019-04-16T22:39:50.841Z,7.60
2019-04-16T22:45:10.056Z,8.20
2019-04-16T22:50:17.013Z,7.07
2019-04-16T22:55:16.194Z,7.10
2019-04-16T23:00:27.339Z,7.80
2019-04-16T23:05:30.817Z,7.17
2019-04-16T23:10:33.364Z,7.33
2019-04-16T23:15:35.440Z,7.13
2019-04-16T23:20:39.432Z,7.30
2019-04-16T23:25:41.510Z,7.07
2019-04-16T23:30:43.630Z,6.80
2019-04-16T23:35:45.741Z,6.70
2019-04-16T23:40:47.834Z,7.30
2019-04-16T23:46:08.225Z,5.87
2019-04-16T23:51:28.683Z,6.50
2019-04-16T23:56:34.453Z,6.27
